Terminal Aerodrome Forecast
Issued by NWS Sterling, VA

Home | Current Version | Previous Version | Text Only | Print | Product List | Glossary On
Versions: 1 2 3 4 5 6 7 8 9 10 11 12 13 14 15 16 17 18 19 20 21 22 23 24 25 26
000
FTUS41 KLWX 291740
TAFIAD
TAF
KIAD 291740Z 2918/3024 20010KT P6SM SCT150 OVC250
     FM292000 23010G17KT P6SM VCTS SCT040CB BKN060
     FM300100 VRB03KT P6SM BKN035
     FM300700 VRB03KT 5SM BR SCT025 BKN200
     FM301200 09005KT P6SM SCT015 BKN025
     FM301600 14006KT P6SM BKN035
     FM302000 17008KT P6SM SCT050=

USA.gov is the U.S. government's official web portal to all federal, state and local government web resources and services.